Terminal Aerodrome Forecast
Issued by NWS

Home | Current Version | Previous Version | Text Only | Print | Product List | Glossary On
Versions: 1 2 3 4 5 6 7 8 9 10 11 12 13 14 15 16 17 18
000
FTUS41 KBGM 241156
TAFITH
TAF
KITH 241156Z 2412/2512 17012G22KT P6SM OVC035 WS020/23045KT
     FM241300 19012G22KT 4SM -FZRAPL BR OVC015 WS020/23045KT
     FM241500 21012G22KT 4SM -SHRA BR SCT015 OVC025
     FM250400 33005KT 2SM BR OVC005=

USA.gov is the U.S. government's official web portal to all federal, state and local government web resources and services.